Time;durP1;ratioP1;P1;durP2;ratioP2;P2;SDS_P1;SDS_P2;PMS_P1;PMS_P2;Temp;Humidity;BMP_temperature;BMP_pressure;BME280_temperature;BME280_humidity;BME280_pressure;Samples;Min_cycle;Max_cycle;Signal;HPM_P1;HPM_P2
2022/09/18 00:02:28;;;;;;;;;;;23.70;45.70;;;;;;6066690;29;19930;-40
2022/09/18 00:05:29;;;;;;;;;;;23.30;45.60;;;;;;6071663;29;20146;-40
2022/09/18 00:08:31;;;;;;;;;;;23.30;45.60;;;;;;6067930;29;20038;-40
2022/09/18 00:11:33;;;;;;;;;;;23.10;45.40;;;;;;6073355;29;20865;-40
2022/09/18 00:14:35;;;;;;;;;;;23.00;45.40;;;;;;6067140;29;19931;-39
2022/09/18 00:17:37;;;;;;;;;;;23.30;45.60;;;;;;6069463;29;19957;-40
2022/09/18 00:20:39;;;;;;;;;;;23.00;45.50;;;;;;6071778;29;19931;-40
2022/09/18 00:23:40;;;;;;;;;;;23.50;45.70;;;;;;6065719;29;19994;-40
2022/09/18 00:26:42;;;;;;;;;;;23.50;45.70;;;;;;6053606;29;19930;-40
2022/09/18 00:29:44;;;;;;;;;;;23.40;45.70;;;;;;6074097;29;20409;-40
2022/09/18 00:32:45;;;;;;;;;;;23.40;45.60;;;;;;6067257;29;21561;-40
2022/09/18 00:35:47;;;;;;;;;;;23.30;45.70;;;;;;6066982;29;21096;-40
2022/09/18 00:38:49;;;;;;;;;;;23.20;45.60;;;;;;6073059;29;19927;-42
2022/09/18 00:41:50;;;;;;;;;;;23.50;45.80;;;;;;6072904;29;20889;-41
2022/09/18 00:44:52;;;;;;;;;;;23.10;45.70;;;;;;6065065;29;20057;-40
2022/09/18 00:47:53;;;;;;;;;;;23.50;45.90;;;;;;6063862;29;20929;-40
2022/09/18 00:50:55;;;;;;;;;;;23.10;45.60;;;;;;6068019;29;19934;-40
2022/09/18 00:54:00;;;;;;;;;;;23.30;45.70;;;;;;6068729;29;19966;-41
2022/09/18 00:57:03;;;;;;;;;;;23.00;45.60;;;;;;6068210;29;19931;-41
2022/09/18 01:00:10;;;;;;;;;;;23.20;45.70;;;;;;6052780;29;19934;-41
2022/09/18 01:03:12;;;;;;;;;;;23.20;45.70;;;;;;6063787;29;20056;-42
2022/09/18 01:06:15;;;;;;;;;;;23.40;45.90;;;;;;6073552;29;20017;-40
2022/09/18 01:09:20;;;;;;;;;;;23.20;45.80;;;;;;6068181;29;19976;-43
2022/09/18 01:12:33;;;;;;;;;;;23.30;45.80;;;;;;6070088;29;20908;-40
2022/09/18 01:15:40;;;;;;;;;;;23.30;45.70;;;;;;6066368;29;19931;-40
2022/09/18 01:18:45;;;;;;;;;;;23.00;45.70;;;;;;6064404;29;20224;-41
2022/09/18 01:21:53;;;;;;;;;;;22.90;45.60;;;;;;6043731;29;20134;-40
2022/09/18 01:24:59;;;;;;;;;;;23.40;46.00;;;;;;6066906;28;19934;-41
2022/09/18 01:28:10;;;;;;;;;;;22.90;45.70;;;;;;6065430;29;19931;-40
2022/09/18 01:31:15;;;;;;;;;;;23.00;45.80;;;;;;6067028;29;20814;-40
2022/09/18 01:34:20;;;;;;;;;;;23.20;45.90;;;;;;6059898;29;20457;-40
2022/09/18 01:37:25;;;;;;;;;;;23.20;45.90;;;;;;6065501;29;20098;-41
2022/09/18 01:40:29;;;;;;;;;;;23.00;45.80;;;;;;6065342;29;19939;-40
2022/09/18 01:43:33;;;;;;;;;;;23.10;45.80;;;;;;6062555;29;20019;-42
2022/09/18 01:46:36;;;;;;;;;;;22.80;45.80;;;;;;6063916;29;20192;-41
2022/09/18 01:49:41;;;;;;;;;;;22.40;45.50;;;;;;6042784;29;19934;-40
2022/09/18 01:52:45;;;;;;;;;;;22.90;45.80;;;;;;6061729;29;20834;-39
2022/09/18 01:55:49;;;;;;;;;;;23.20;45.90;;;;;;6068828;29;20152;-40
2022/09/18 01:58:54;;;;;;;;;;;22.80;45.70;;;;;;6060593;29;19931;-42
2022/09/18 02:02:00;;;;;;;;;;;23.10;46.00;;;;;;6054534;29;20073;-40
2022/09/18 02:05:04;;;;;;;;;;;23.10;46.00;;;;;;6062838;29;19930;-41
2022/09/18 02:08:08;;;;;;;;;;;22.90;45.90;;;;;;6063965;29;20435;-39
2022/09/18 02:11:12;;;;;;;;;;;22.80;45.90;;;;;;6059064;29;20277;-39
2022/09/18 02:14:15;;;;;;;;;;;23.20;46.10;;;;;;6063621;29;19966;-40
2022/09/18 02:17:38;;;;;;;;;;;23.00;46.00;;;;;;6062415;28;19931;-40
2022/09/18 02:20:43;;;;;;;;;;;22.70;45.90;;;;;;6060252;29;20114;-40
2022/09/18 02:23:45;;;;;;;;;;;22.70;45.90;;;;;;6062347;29;20894;-40
2022/09/18 02:26:48;;;;;;;;;;;23.10;46.00;;;;;;6039409;29;20053;-40
2022/09/18 02:29:50;;;;;;;;;;;22.60;45.80;;;;;;6060019;29;20245;-41
2022/09/18 02:32:52;;;;;;;;;;;22.40;45.70;;;;;;6062577;29;20160;-41
2022/09/18 02:36:00;;;;;;;;;;;23.10;46.10;;;;;;6045012;29;20048;-40
2022/09/18 02:39:06;;;;;;;;;;;23.00;46.00;;;;;;6067771;29;19930;-40
2022/09/18 02:42:15;;;;;;;;;;;22.80;46.00;;;;;;6047176;29;19935;-40
2022/09/18 02:45:21;;;;;;;;;;;23.00;46.10;;;;;;6055782;29;19937;-40
2022/09/18 02:48:29;;;;;;;;;;;22.80;46.00;;;;;;6068619;29;20340;-42
2022/09/18 02:51:34;;;;;;;;;;;22.90;46.00;;;;;;6046080;29;19988;-40
2022/09/18 02:54:38;;;;;;;;;;;22.50;45.90;;;;;;6050414;29;19934;-41
2022/09/18 02:57:40;;;;;;;;;;;22.60;45.90;;;;;;6050525;29;20328;-40
2022/09/18 03:00:47;;;;;;;;;;;22.50;45.90;;;;;;6068466;29;19958;-40
2022/09/18 03:03:53;;;;;;;;;;;23.00;46.20;;;;;;6066124;29;19935;-40
2022/09/18 03:07:06;;;;;;;;;;;23.10;46.30;;;;;;6067960;29;20258;-40
2022/09/18 03:10:14;;;;;;;;;;;23.00;46.30;;;;;;6069892;29;20877;-40
2022/09/18 03:13:18;;;;;;;;;;;22.60;46.00;;;;;;6065352;29;19941;-40
2022/09/18 03:16:23;;;;;;;;;;;22.70;46.10;;;;;;6063364;29;19980;-43
2022/09/18 03:19:25;;;;;;;;;;;23.00;46.30;;;;;;6069065;29;19966;-40
2022/09/18 03:22:26;;;;;;;;;;;22.50;46.10;;;;;;6063342;29;20637;-40
2022/09/18 03:25:27;;;;;;;;;;;22.40;46.10;;;;;;6064484;29;19935;-40
2022/09/18 03:28:29;;;;;;;;;;;23.20;46.50;;;;;;6064666;29;19966;-40
2022/09/18 03:31:31;;;;;;;;;;;22.50;46.00;;;;;;6062495;29;20713;-40
2022/09/18 03:34:35;;;;;;;;;;;22.90;46.20;;;;;;6059606;29;19978;-39
2022/09/18 03:37:36;;;;;;;;;;;22.60;46.20;;;;;;6066906;29;20294;-40
2022/09/18 03:40:42;;;;;;;;;;;22.70;46.30;;;;;;6059650;29;19938;-40
2022/09/18 03:43:51;;;;;;;;;;;22.60;46.20;;;;;;6061390;29;20205;-40
2022/09/18 03:46:54;;;;;;;;;;;22.70;46.20;;;;;;6059940;29;19950;-40
2022/09/18 03:49:55;;;;;;;;;;;22.40;46.10;;;;;;6064131;29;20026;-42
2022/09/18 03:52:57;;;;;;;;;;;22.40;46.20;;;;;;6067137;29;19972;-40
2022/09/18 03:56:13;;;;;;;;;;;22.40;46.20;;;;;;6065723;29;19934;-40
2022/09/18 03:59:33;;;;;;;;;;;22.20;46.00;;;;;;6067844;29;19935;-40
2022/09/18 04:02:46;;;;;;;;;;;22.40;46.20;;;;;;6069326;29;19956;-40
2022/09/18 04:06:06;;;;;;;;;;;22.80;46.30;;;;;;6063783;29;19937;-42
2022/09/18 04:09:28;;;;;;;;;;;22.70;46.20;;;;;;6059712;29;20712;-41
2022/09/18 04:12:29;;;;;;;;;;;22.60;46.30;;;;;;6064037;29;20362;-39
2022/09/18 04:15:49;;;;;;;;;;;22.20;46.20;;;;;;6057950;29;20506;-42
2022/09/18 04:18:51;;;;;;;;;;;22.60;46.30;;;;;;6058986;29;20414;-40
2022/09/18 04:21:52;;;;;;;;;;;22.80;46.50;;;;;;6063470;29;20533;-40
2022/09/18 04:24:55;;;;;;;;;;;22.60;46.40;;;;;;6060944;29;20628;-41
2022/09/18 04:27:57;;;;;;;;;;;22.40;46.30;;;;;;6061194;29;20238;-40
2022/09/18 04:30:58;;;;;;;;;;;22.60;46.40;;;;;;6059048;29;19934;-40
2022/09/18 04:34:00;;;;;;;;;;;22.50;46.40;;;;;;6059377;29;20302;-40
2022/09/18 04:37:02;;;;;;;;;;;22.60;46.50;;;;;;6059569;29;19970;-40
2022/09/18 04:40:10;;;;;;;;;;;22.60;46.40;;;;;;6060200;29;20502;-40
2022/09/18 04:43:11;;;;;;;;;;;22.40;46.30;;;;;;6063072;29;19935;-40
2022/09/18 04:46:18;;;;;;;;;;;22.30;46.40;;;;;;6057584;29;20740;-40
2022/09/18 04:49:20;;;;;;;;;;;22.90;47.30;;;;;;6055765;29;20261;-40
2022/09/18 04:52:22;;;;;;;;;;;22.20;46.30;;;;;;6057301;29;20122;-42
2022/09/18 04:55:24;;;;;;;;;;;22.60;46.60;;;;;;6058374;29;19934;-42
2022/09/18 04:58:25;;;;;;;;;;;22.60;46.60;;;;;;6058452;29;20395;-40
2022/09/18 05:01:34;;;;;;;;;;;22.40;46.50;;;;;;6063811;29;20287;-40
2022/09/18 05:04:42;;;;;;;;;;;22.30;46.30;;;;;;6063753;29;19930;-40
2022/09/18 05:07:57;;;;;;;;;;;22.60;46.60;;;;;;6057572;29;20068;-40
2022/09/18 05:10:59;;;;;;;;;;;22.50;45.80;;;;;;6061947;29;20398;-40
2022/09/18 05:14:02;;;;;;;;;;;23.00;46.80;;;;;;6055088;29;19978;-40
2022/09/18 05:17:10;;;;;;;;;;;22.20;46.40;;;;;;6056448;29;20123;-40
2022/09/18 05:20:14;;;;;;;;;;;22.30;46.50;;;;;;6055542;29;20014;-40
2022/09/18 05:23:16;;;;;;;;;;;22.80;46.70;;;;;;6059500;29;19938;-40
2022/09/18 05:26:17;;;;;;;;;;;22.30;46.50;;;;;;6057494;29;20054;-40
2022/09/18 05:29:19;;;;;;;;;;;22.20;46.50;;;;;;6058892;29;20865;-40
2022/09/18 05:32:21;;;;;;;;;;;22.10;46.30;;;;;;6059666;29;19931;-40
2022/09/18 05:35:25;;;;;;;;;;;22.10;46.40;;;;;;6055651;29;20005;-41
2022/09/18 05:38:30;;;;;;;;;;;22.30;46.80;;;;;;6039302;29;20636;-40
2022/09/18 05:41:31;;;;;;;;;;;22.40;46.40;;;;;;6054494;29;20418;-40
2022/09/18 05:44:36;;;;;;;;;;;22.50;46.70;;;;;;6054604;29;20284;-40
2022/09/18 05:47:53;;;;;;;;;;;22.20;46.50;;;;;;6059777;29;20145;-40
2022/09/18 05:50:56;;;;;;;;;;;22.50;46.50;;;;;;6059824;29;20546;-41
2022/09/18 05:53:59;;;;;;;;;;;22.00;46.20;;;;;;6062249;29;20890;-40
2022/09/18 05:57:12;;;;;;;;;;;22.40;46.60;;;;;;6059798;29;20183;-40
2022/09/18 06:00:13;;;;;;;;;;;22.00;46.50;;;;;;6062106;29;19945;-43
2022/09/18 06:03:20;;;;;;;;;;;22.00;46.40;;;;;;6055135;29;20651;-40
2022/09/18 06:06:22;;;;;;;;;;;22.50;46.80;;;;;;6055706;29;20422;-40
2022/09/18 06:09:24;;;;;;;;;;;22.60;46.70;;;;;;6052501;29;20485;-41
2022/09/18 06:12:25;;;;;;;;;;;22.60;46.80;;;;;;6053284;29;20252;-40
2022/09/18 06:15:26;;;;;;;;;;;22.40;47.30;;;;;;6055627;29;19930;-40
2022/09/18 06:18:28;;;;;;;;;;;22.40;46.60;;;;;;6052632;29;20350;-39
2022/09/18 06:21:32;;;;;;;;;;;22.10;46.30;;;;;;6054724;29;21184;-40
2022/09/18 06:24:34;;;;;;;;;;;22.20;46.40;;;;;;6053955;29;20036;-40
2022/09/18 06:27:41;;;;;;;;;;;22.30;46.30;;;;;;6055853;29;20690;-40
2022/09/18 06:30:42;;;;;;;;;;;22.60;46.50;;;;;;6056847;29;20364;-43
2022/09/18 06:33:46;;;;;;;;;;;22.40;46.30;;;;;;6048927;29;20152;-39
2022/09/18 06:36:49;;;;;;;;;;;22.40;46.10;;;;;;6053731;29;20256;-40
2022/09/18 06:40:11;;;;;;;;;;;22.60;46.10;;;;;;6036608;29;20390;-40
2022/09/18 06:43:27;;;;;;;;;;;22.50;45.90;;;;;;6048768;29;19934;-40
2022/09/18 06:46:48;;;;;;;;;;;22.60;46.00;;;;;;6049156;29;19944;-40
2022/09/18 06:50:04;;;;;;;;;;;22.50;45.80;;;;;;6057312;29;19935;-41
2022/09/18 06:53:06;;;;;;;;;;;22.70;45.70;;;;;;6050620;29;20409;-40
2022/09/18 06:56:16;;;;;;;;;;;22.70;45.70;;;;;;6045931;29;20078;-40
2022/09/18 06:59:17;;;;;;;;;;;22.60;45.60;;;;;;6052071;29;20233;-40
2022/09/18 07:02:19;;;;;;;;;;;22.50;45.50;;;;;;6047775;29;19935;-40
2022/09/18 07:05:30;;;;;;;;;;;22.50;45.60;;;;;;6049728;29;20680;-40
2022/09/18 07:08:32;;;;;;;;;;;22.60;45.50;;;;;;6054020;29;20034;-40
2022/09/18 07:11:47;;;;;;;;;;;22.60;45.60;;;;;;6045548;29;20531;-41
2022/09/18 07:14:50;;;;;;;;;;;22.90;45.50;;;;;;6045918;29;20050;-40
2022/09/18 07:17:54;;;;;;;;;;;22.90;45.90;;;;;;6048402;29;20342;-40
2022/09/18 07:20:57;;;;;;;;;;;22.30;45.40;;;;;;6036071;29;20462;-42
2022/09/18 07:24:08;;;;;;;;;;;22.90;45.70;;;;;;6041524;29;20230;-41
2022/09/18 07:27:10;;;;;;;;;;;22.80;45.70;;;;;;6059866;29;19931;-40
2022/09/18 07:30:14;;;;;;;;;;;22.90;45.80;;;;;;6057585;29;19935;-42
2022/09/18 07:33:17;;;;;;;;;;;22.40;45.40;;;;;;6048615;29;19931;-40
2022/09/18 07:36:22;;;;;;;;;;;22.60;45.60;;;;;;6054680;29;19986;-41
2022/09/18 07:39:24;;;;;;;;;;;22.80;45.60;;;;;;6054186;29;19939;-40
2022/09/18 07:42:46;;;;;;;;;;;22.50;45.40;;;;;;6055178;29;19931;-41
2022/09/18 07:45:48;;;;;;;;;;;22.60;45.50;;;;;;6054350;29;19935;-41
2022/09/18 07:48:50;;;;;;;;;;;22.80;45.40;;;;;;6054553;29;19931;-40
2022/09/18 07:51:58;;;;;;;;;;;23.00;45.60;;;;;;6054928;29;19942;-40
2022/09/18 07:55:02;;;;;;;;;;;22.70;45.30;;;;;;6058245;29;20190;-40
2022/09/18 07:58:07;;;;;;;;;;;23.10;45.50;;;;;;6058733;29;20056;-40
2022/09/18 08:01:28;;;;;;;;;;;23.00;45.40;;;;;;6057340;29;20005;-40
2022/09/18 08:04:31;;;;;;;;;;;23.20;45.50;;;;;;6058850;29;20077;-40
2022/09/18 08:07:47;;;;;;;;;;;22.90;45.30;;;;;;6050627;29;19981;-42
2022/09/18 08:11:04;;;;;;;;;;;23.30;44.80;;;;;;6044257;29;20161;-40
2022/09/18 08:14:25;;;;;;;;;;;22.90;45.00;;;;;;6053641;29;19934;-41
2022/09/18 08:17:46;;;;;;;;;;;23.30;45.30;;;;;;6055866;29;19974;-41
2022/09/18 08:20:56;;;;;;;;;;;23.10;45.10;;;;;;6053414;29;20171;-41
2022/09/18 08:24:12;;;;;;;;;;;23.20;45.10;;;;;;6049127;29;20506;-42
2022/09/18 08:27:15;;;;;;;;;;;23.00;45.00;;;;;;6051363;29;19938;-41
2022/09/18 08:30:17;;;;;;;;;;;22.80;44.90;;;;;;6052395;29;20204;-40
2022/09/18 08:33:20;;;;;;;;;;;22.90;45.00;;;;;;6047088;29;19982;-40
2022/09/18 08:36:22;;;;;;;;;;;23.00;45.00;;;;;;6047799;29;20488;-40
2022/09/18 08:39:32;;;;;;;;;;;23.20;45.10;;;;;;6049023;29;20019;-40
2022/09/18 08:42:55;;;;;;;;;;;23.10;45.10;;;;;;6051855;29;19935;-40
2022/09/18 08:45:59;;;;;;;;;;;23.00;44.90;;;;;;6051501;29;20241;-41
2022/09/18 08:49:06;;;;;;;;;;;23.00;44.90;;;;;;6052701;29;19930;-40
2022/09/18 08:52:10;;;;;;;;;;;23.10;44.90;;;;;;6044267;29;19977;-42
2022/09/18 08:55:15;;;;;;;;;;;22.90;44.80;;;;;;6046167;29;21221;-40
2022/09/18 08:58:39;;;;;;;;;;;23.10;44.90;;;;;;6045117;29;19935;-42
2022/09/18 09:01:44;;;;;;;;;;;23.50;44.70;;;;;;6053783;29;20584;-42
2022/09/18 09:04:49;;;;;;;;;;;23.20;44.90;;;;;;6048435;29;20275;-41
2022/09/18 09:07:59;;;;;;;;;;;23.00;44.80;;;;;;6046704;29;19937;-40
2022/09/18 09:11:04;;;;;;;;;;;23.10;44.80;;;;;;6045235;29;19931;-40
2022/09/18 09:14:14;;;;;;;;;;;23.00;44.60;;;;;;6042986;29;20062;-40
2022/09/18 09:17:20;;;;;;;;;;;23.10;44.70;;;;;;6040935;29;20344;-41
2022/09/18 09:20:22;;;;;;;;;;;23.30;44.90;;;;;;6053530;29;20430;-40
2022/09/18 09:23:33;;;;;;;;;;;23.40;44.80;;;;;;6054322;29;19982;-41
2022/09/18 09:26:44;;;;;;;;;;;23.10;44.70;;;;;;6046426;29;19957;-42
2022/09/18 09:30:00;;;;;;;;;;;23.20;44.70;;;;;;6050395;29;21700;-41
2022/09/18 09:33:17;;;;;;;;;;;23.10;44.60;;;;;;6050029;29;19935;-40
2022/09/18 09:36:40;;;;;;;;;;;23.50;44.80;;;;;;6046578;29;20684;-40
2022/09/18 09:39:44;;;;;;;;;;;23.40;44.80;;;;;;6051277;29;20332;-40
2022/09/18 09:42:50;;;;;;;;;;;23.20;44.60;;;;;;6047837;29;20138;-40
2022/09/18 09:45:54;;;;;;;;;;;23.10;44.50;;;;;;6050561;28;20383;-40
2022/09/18 09:48:58;;;;;;;;;;;23.20;44.60;;;;;;6047785;29;20030;-41
2022/09/18 09:52:04;;;;;;;;;;;23.40;44.70;;;;;;6045954;29;19960;-40
2022/09/18 09:55:18;;;;;;;;;;;23.50;44.70;;;;;;6050627;29;20038;-40
2022/09/18 09:58:27;;;;;;;;;;;23.20;44.50;;;;;;6043453;29;19931;-40
2022/09/18 10:01:31;;;;;;;;;;;23.60;44.70;;;;;;6052034;29;20879;-41
2022/09/18 10:04:37;;;;;;;;;;;23.60;44.70;;;;;;6051322;29;19931;-40
2022/09/18 10:07:42;;;;;;;;;;;23.40;44.50;;;;;;6046046;29;19936;-41
2022/09/18 10:10:46;;;;;;;;;;;23.80;44.80;;;;;;6048421;29;20239;-40
2022/09/18 10:13:52;;;;;;;;;;;23.40;44.50;;;;;;6047049;29;20350;-40
2022/09/18 10:16:56;;;;;;;;;;;23.30;44.50;;;;;;6044483;29;21108;-41
2022/09/18 10:19:57;;;;;;;;;;;24.00;44.90;;;;;;6050289;29;19934;-41
2022/09/18 10:23:01;;;;;;;;;;;23.50;44.60;;;;;;6044232;29;19943;-40
2022/09/18 10:26:03;;;;;;;;;;;23.20;44.40;;;;;;6038622;29;20279;-40
2022/09/18 10:29:08;;;;;;;;;;;23.70;44.70;;;;;;6048989;29;20203;-40
2022/09/18 10:32:31;;;;;;;;;;;23.60;44.70;;;;;;6052130;29;19931;-41
2022/09/18 10:35:41;;;;;;;;;;;23.70;44.70;;;;;;6029347;29;20388;-40
2022/09/18 10:38:42;;;;;;;;;;;23.30;44.40;;;;;;6052027;29;20152;-41
2022/09/18 10:41:58;;;;;;;;;;;23.20;44.40;;;;;;6048158;29;20283;-40
2022/09/18 10:45:02;;;;;;;;;;;23.50;44.50;;;;;;6050141;29;19935;-41
2022/09/18 10:48:12;;;;;;;;;;;23.40;44.40;;;;;;6048524;29;20803;-40
2022/09/18 10:51:15;;;;;;;;;;;23.70;44.50;;;;;;6048655;29;19935;-40
2022/09/18 10:54:21;;;;;;;;;;;23.60;44.60;;;;;;6049452;29;20292;-40
2022/09/18 10:57:32;;;;;;;;;;;23.40;44.40;;;;;;6052263;28;19938;-44
2022/09/18 11:00:44;;;;;;;;;;;23.40;44.30;;;;;;6056337;29;20762;-40
2022/09/18 11:03:46;;;;;;;;;;;24.00;44.70;;;;;;6054818;29;19979;-40
2022/09/18 11:06:55;;;;;;;;;;;23.70;44.50;;;;;;6056009;29;19945;-41
2022/09/18 11:10:05;;;;;;;;;;;23.40;44.30;;;;;;6052025;29;19935;-40
2022/09/18 11:13:17;;;;;;;;;;;23.40;44.30;;;;;;6051677;29;20229;-40
2022/09/18 11:16:22;;;;;;;;;;;23.70;44.40;;;;;;6054665;29;20212;-40
2022/09/18 11:19:27;;;;;;;;;;;23.80;44.50;;;;;;6038701;29;19943;-41
2022/09/18 11:22:30;;;;;;;;;;;23.60;44.30;;;;;;6053310;29;20260;-40
2022/09/18 11:25:33;;;;;;;;;;;23.60;44.30;;;;;;6055643;29;20756;-40
2022/09/18 11:28:40;;;;;;;;;;;23.70;44.40;;;;;;6058892;29;19935;-40
2022/09/18 11:31:46;;;;;;;;;;;23.40;44.30;;;;;;6054972;29;19956;-40
2022/09/18 11:34:56;;;;;;;;;;;23.60;44.30;;;;;;6054317;29;20347;-41
2022/09/18 11:38:06;;;;;;;;;;;23.40;44.20;;;;;;6050742;29;20026;-43
2022/09/18 11:41:11;;;;;;;;;;;23.60;44.20;;;;;;6053495;29;20061;-41
2022/09/18 11:44:21;;;;;;;;;;;23.80;44.30;;;;;;6056928;29;20390;-40
2022/09/18 11:47:32;;;;;;;;;;;23.40;44.00;;;;;;6055309;29;20179;-40
2022/09/18 11:50:36;;;;;;;;;;;24.10;44.40;;;;;;6052534;29;20249;-40
2022/09/18 11:53:41;;;;;;;;;;;23.90;44.30;;;;;;6053922;29;19935;-41
2022/09/18 11:56:44;;;;;;;;;;;23.60;44.10;;;;;;6053944;29;20398;-43
2022/09/18 11:59:50;;;;;;;;;;;23.90;44.20;;;;;;6051375;29;20250;-41
2022/09/18 12:02:57;;;;;;;;;;;23.90;44.20;;;;;;6034745;29;19943;-41
2022/09/18 12:06:03;;;;;;;;;;;24.10;44.30;;;;;;6051435;29;19934;-41
2022/09/18 12:09:10;;;;;;;;;;;23.80;44.10;;;;;;6045833;29;20272;-42
2022/09/18 12:12:18;;;;;;;;;;;23.90;44.70;;;;;;6048124;29;19935;-41
2022/09/18 12:15:21;;;;;;;;;;;24.20;44.20;;;;;;6041222;29;20053;-40
2022/09/18 12:18:25;;;;;;;;;;;23.90;44.00;;;;;;6044556;29;20304;-43
2022/09/18 12:21:36;;;;;;;;;;;24.00;44.00;;;;;;6043334;29;20077;-42
2022/09/18 12:24:38;;;;;;;;;;;24.00;44.00;;;;;;6026399;29;19935;-41
2022/09/18 12:27:45;;;;;;;;;;;23.90;44.00;;;;;;6043729;29;19931;-41
2022/09/18 12:30:50;;;;;;;;;;;23.70;43.80;;;;;;6042104;29;20483;-41
2022/09/18 12:33:56;;;;;;;;;;;23.60;43.70;;;;;;6047082;29;20039;-41
2022/09/18 12:37:12;;;;;;;;;;;23.60;43.80;;;;;;6043249;29;20738;-42
2022/09/18 12:40:22;;;;;;;;;;;24.10;43.90;;;;;;6047595;29;20355;-41
2022/09/18 12:43:31;;;;;;;;;;;23.90;43.80;;;;;;6043384;29;19934;-41
2022/09/18 12:46:37;;;;;;;;;;;24.20;43.90;;;;;;6047379;29;20449;-41
2022/09/18 12:49:51;;;;;;;;;;;24.00;43.80;;;;;;6047019;29;20192;-42
2022/09/18 12:52:55;;;;;;;;;;;24.20;43.80;;;;;;6043835;29;20363;-40
2022/09/18 12:56:18;;;;;;;;;;;23.70;43.60;;;;;;6032544;29;20286;-41
2022/09/18 12:59:29;;;;;;;;;;;24.00;43.70;;;;;;6043048;29;20093;-41
2022/09/18 13:02:36;;;;;;;;;;;24.20;43.80;;;;;;6041225;29;19934;-41
2022/09/18 13:05:40;;;;;;;;;;;23.90;43.60;;;;;;6042120;29;20846;-43
2022/09/18 13:08:44;;;;;;;;;;;23.90;43.60;;;;;;6048173;29;20792;-41
2022/09/18 13:11:48;;;;;;;;;;;24.10;43.70;;;;;;6047817;29;20230;-41
2022/09/18 13:14:50;;;;;;;;;;;23.80;43.50;;;;;;6047532;29;20002;-40
2022/09/18 13:17:54;;;;;;;;;;;24.20;43.70;;;;;;6048680;29;20046;-41
2022/09/18 13:21:00;;;;;;;;;;;24.20;43.70;;;;;;6048857;29;20072;-41
2022/09/18 13:24:03;;;;;;;;;;;24.30;43.70;;;;;;6041161;29;20241;-40
2022/09/18 13:27:08;;;;;;;;;;;24.20;43.70;;;;;;6027091;29;20673;-41
2022/09/18 13:30:14;;;;;;;;;;;24.50;43.80;;;;;;6044124;29;20890;-41
2022/09/18 13:33:23;;;;;;;;;;;24.00;43.50;;;;;;6046472;29;20000;-41
2022/09/18 13:36:27;;;;;;;;;;;24.30;43.70;;;;;;6024604;29;20364;-41
2022/09/18 13:39:30;;;;;;;;;;;24.30;43.70;;;;;;6040453;29;19934;-41
2022/09/18 13:42:52;;;;;;;;;;;24.50;43.70;;;;;;6034389;29;20164;-43
2022/09/18 13:45:54;;;;;;;;;;;24.20;43.60;;;;;;6047708;29;19981;-43
2022/09/18 13:48:56;;;;;;;;;;;24.00;43.50;;;;;;6038618;29;19934;-41
2022/09/18 13:52:07;;;;;;;;;;;24.10;43.40;;;;;;6038831;29;20218;-40
2022/09/18 13:55:24;;;;;;;;;;;24.40;43.60;;;;;;6049564;29;19939;-41
2022/09/18 13:58:33;;;;;;;;;;;24.20;43.40;;;;;;6047531;29;20406;-40
2022/09/18 14:01:49;;;;;;;;;;;24.40;43.50;;;;;;6029572;29;20307;-41
2022/09/18 14:04:59;;;;;;;;;;;24.50;43.60;;;;;;6029449;29;20201;-41
2022/09/18 14:08:08;;;;;;;;;;;24.50;43.60;;;;;;6037798;29;20585;-40
2022/09/18 14:11:10;;;;;;;;;;;24.30;43.40;;;;;;6025603;29;20053;-41
2022/09/18 14:14:19;;;;;;;;;;;24.20;43.40;;;;;;6041061;29;20430;-43
2022/09/18 14:17:21;;;;;;;;;;;24.60;43.60;;;;;;6049010;29;20181;-41
2022/09/18 14:20:24;;;;;;;;;;;24.30;43.40;;;;;;6044683;29;21057;-41
2022/09/18 14:23:40;;;;;;;;;;;24.40;43.40;;;;;;6038741;29;20174;-41
2022/09/18 14:26:53;;;;;;;;;;;24.10;43.20;;;;;;6041289;29;20557;-43
2022/09/18 14:29:56;;;;;;;;;;;24.10;43.20;;;;;;6036112;29;20455;-41
2022/09/18 14:33:04;;;;;;;;;;;24.30;43.30;;;;;;6023565;29;20069;-41
2022/09/18 14:36:06;;;;;;;;;;;24.30;43.30;;;;;;6042221;29;20238;-40
2022/09/18 14:39:21;;;;;;;;;;;24.50;43.40;;;;;;6037735;29;20216;-41
2022/09/18 14:42:24;;;;;;;;;;;24.50;43.40;;;;;;6039179;29;20153;-42
2022/09/18 14:45:28;;;;;;;;;;;24.30;43.20;;;;;;6022142;29;20847;-42
2022/09/18 14:48:34;;;;;;;;;;;24.60;43.40;;;;;;6043053;29;19970;-41
2022/09/18 14:51:42;;;;;;;;;;;24.30;43.30;;;;;;6028021;29;19957;-41
2022/09/18 14:55:09;;;;;;;;;;;24.40;43.30;;;;;;6019199;29;21449;-41
2022/09/18 14:58:12;;;;;;;;;;;24.50;43.40;;;;;;6040349;29;20147;-41
2022/09/18 15:01:16;;;;;;;;;;;24.20;43.20;;;;;;6038839;29;19930;-40
2022/09/18 15:04:20;;;;;;;;;;;24.50;43.40;;;;;;6040762;29;20117;-41
2022/09/18 15:07:22;;;;;;;;;;;24.50;43.30;;;;;;6040987;29;20666;-41
2022/09/18 15:10:24;;;;;;;;;;;24.10;43.20;;;;;;6039158;29;20803;-40
2022/09/18 15:13:27;;;;;;;;;;;24.60;43.40;;;;;;6034198;29;20154;-41
2022/09/18 15:16:30;;;;;;;;;;;24.40;43.30;;;;;;6032436;29;20390;-41
2022/09/18 15:19:32;;;;;;;;;;;24.60;43.40;;;;;;6038696;29;19956;-42
2022/09/18 15:22:33;;;;;;;;;;;24.20;43.20;;;;;;6040642;29;20372;-41
2022/09/18 15:25:37;;;;;;;;;;;24.60;43.40;;;;;;6034254;29;20379;-41
2022/09/18 15:28:40;;;;;;;;;;;24.80;43.50;;;;;;6046714;29;19935;-41
2022/09/18 15:31:42;;;;;;;;;;;24.40;43.20;;;;;;6042563;29;20056;-41
2022/09/18 15:34:46;;;;;;;;;;;24.60;43.40;;;;;;6040480;29;20292;-43
2022/09/18 15:37:50;;;;;;;;;;;24.30;43.20;;;;;;6040948;29;19977;-41
2022/09/18 15:40:52;;;;;;;;;;;24.50;43.30;;;;;;6024812;29;20046;-41
2022/09/18 15:43:53;;;;;;;;;;;24.60;43.30;;;;;;6045252;29;20057;-41
2022/09/18 15:46:55;;;;;;;;;;;24.30;43.20;;;;;;6045960;29;19961;-43
2022/09/18 15:49:57;;;;;;;;;;;24.40;43.30;;;;;;6048043;29;20558;-41
2022/09/18 15:53:00;;;;;;;;;;;24.40;43.20;;;;;;6027764;29;19935;-41
2022/09/18 15:56:04;;;;;;;;;;;24.40;43.20;;;;;;6032203;29;20304;-40
2022/09/18 15:59:06;;;;;;;;;;;24.20;43.10;;;;;;6051171;29;20426;-41
2022/09/18 16:02:19;;;;;;;;;;;24.10;43.00;;;;;;6046387;29;20713;-41
2022/09/18 16:05:21;;;;;;;;;;;24.50;43.20;;;;;;6047581;29;19931;-44
2022/09/18 16:08:25;;;;;;;;;;;24.50;43.20;;;;;;6044666;29;19931;-41
2022/09/18 16:11:40;;;;;;;;;;;24.60;43.20;;;;;;6041080;29;21095;-40
2022/09/18 16:14:43;;;;;;;;;;;24.70;43.20;;;;;;6029962;29;20363;-41
2022/09/18 16:17:53;;;;;;;;;;;24.50;43.10;;;;;;6045206;29;19970;-41
2022/09/18 16:21:00;;;;;;;;;;;24.70;43.20;;;;;;6050339;29;20538;-42
2022/09/18 16:24:02;;;;;;;;;;;24.40;43.10;;;;;;6048627;29;20084;-41
2022/09/18 16:27:04;;;;;;;;;;;24.70;43.20;;;;;;6048730;29;20244;-41
2022/09/18 16:30:05;;;;;;;;;;;24.70;43.20;;;;;;6040560;29;20077;-41
2022/09/18 16:33:15;;;;;;;;;;;24.60;43.10;;;;;;6052479;29;19930;-40
2022/09/18 16:36:22;;;;;;;;;;;24.70;43.10;;;;;;6051199;29;19931;-40
2022/09/18 16:39:24;;;;;;;;;;;24.60;43.00;;;;;;6055596;29;20057;-40
2022/09/18 16:42:26;;;;;;;;;;;24.50;43.00;;;;;;6052821;29;19939;-43
2022/09/18 16:45:27;;;;;;;;;;;24.40;42.80;;;;;;6044332;29;20316;-40
2022/09/18 16:48:30;;;;;;;;;;;25.10;43.20;;;;;;6052977;29;20594;-42
2022/09/18 16:51:31;;;;;;;;;;;24.70;42.90;;;;;;6047466;29;19935;-40
2022/09/18 16:54:33;;;;;;;;;;;24.50;42.80;;;;;;6041784;29;19966;-43
2022/09/18 16:57:34;;;;;;;;;;;24.80;43.00;;;;;;6052578;29;19930;-42
2022/09/18 17:00:36;;;;;;;;;;;24.80;43.00;;;;;;6051185;29;19942;-41
2022/09/18 17:03:38;;;;;;;;;;;24.70;42.80;;;;;;6053079;29;20842;-43
2022/09/18 17:06:40;;;;;;;;;;;25.00;43.00;;;;;;6055145;29;19930;-41
2022/09/18 17:09:41;;;;;;;;;;;24.70;42.80;;;;;;6051886;29;20872;-43
2022/09/18 17:12:45;;;;;;;;;;;24.90;42.90;;;;;;6051672;29;19981;-41
2022/09/18 17:15:46;;;;;;;;;;;24.50;42.70;;;;;;6053826;29;19935;-41
2022/09/18 17:18:48;;;;;;;;;;;24.60;42.70;;;;;;6049003;29;19931;-42
2022/09/18 17:21:50;;;;;;;;;;;24.80;42.80;;;;;;6054710;29;19950;-43
2022/09/18 17:24:51;;;;;;;;;;;24.90;42.90;;;;;;6060056;29;20074;-43
2022/09/18 17:27:52;;;;;;;;;;;24.70;42.80;;;;;;6056790;29;20854;-40
2022/09/18 17:30:54;;;;;;;;;;;25.30;43.20;;;;;;6051495;29;19977;-42
2022/09/18 17:33:56;;;;;;;;;;;24.80;42.90;;;;;;6053652;29;20789;-43
2022/09/18 17:36:58;;;;;;;;;;;24.90;42.90;;;;;;6044089;29;19962;-40
2022/09/18 17:40:00;;;;;;;;;;;24.80;42.90;;;;;;6051692;29;19941;-42
2022/09/18 17:43:01;;;;;;;;;;;24.70;42.80;;;;;;6052113;29;19935;-40
2022/09/18 17:46:04;;;;;;;;;;;24.80;42.90;;;;;;6048007;29;20363;-49
2022/09/18 17:49:06;;;;;;;;;;;25.00;43.00;;;;;;6050038;29;20590;-41
2022/09/18 17:52:07;;;;;;;;;;;24.80;42.90;;;;;;6048804;29;20929;-41
2022/09/18 17:55:08;;;;;;;;;;;24.80;43.00;;;;;;6049883;29;19930;-41
2022/09/18 17:58:10;;;;;;;;;;;25.10;43.10;;;;;;6052897;29;20045;-42
2022/09/18 18:01:12;;;;;;;;;;;24.70;42.90;;;;;;6057453;29;19974;-40